createdAt,value
2022-09-25T00:01:35.295Z,7.17
2022-09-25T00:04:03.794Z,10.53
2022-09-25T00:06:34.101Z,6.80
2022-09-25T00:09:03.138Z,7.67
2022-09-25T00:11:33.015Z,6.93
2022-09-25T00:14:03.483Z,7.87
2022-09-25T00:16:33.583Z,6.70
2022-09-25T00:19:19.877Z,8.23
2022-09-25T00:21:53.232Z,9.57
2022-09-25T00:24:22.573Z,7.77
2022-09-25T00:26:51.225Z,8.80
2022-09-25T00:29:21.981Z,7.00
2022-09-25T00:31:50.164Z,7.33
2022-09-25T00:34:18.379Z,7.43
2022-09-25T00:36:46.640Z,7.40
2022-09-25T00:39:15.030Z,7.20
2022-09-25T00:41:45.062Z,8.23
2022-09-25T00:45:05.210Z,7.37
2022-09-25T00:47:44.646Z,7.97
2022-09-25T00:50:22.128Z,8.13
2022-09-25T00:52:53.310Z,8.30
2022-09-25T00:55:22.689Z,7.67
2022-09-25T00:57:54.473Z,9.83
2022-09-25T01:00:22.849Z,7.23
2022-09-25T01:02:55.151Z,10.00
2022-09-25T01:05:27.310Z,10.63
2022-09-25T01:07:58.522Z,10.47
2022-09-25T01:10:26.711Z,9.93
2022-09-25T01:12:56.376Z,9.20
2022-09-25T01:15:31.988Z,7.00
2022-09-25T01:18:11.561Z,9.30
2022-09-25T01:21:10.090Z,8.20
2022-09-25T01:24:01.559Z,9.30
2022-09-25T01:27:00.229Z,7.53
2022-09-25T01:29:36.032Z,10.77
2022-09-25T01:32:11.720Z,7.57
2022-09-25T01:34:45.777Z,9.07
2022-09-25T01:37:23.550Z,8.33
2022-09-25T01:40:03.848Z,8.37
2022-09-25T01:42:38.583Z,7.83
2022-09-25T01:45:12.261Z,9.07
2022-09-25T01:47:42.300Z,7.20
2022-09-25T01:50:17.956Z,9.53
2022-09-25T01:52:52.299Z,7.17
2022-09-25T01:55:28.665Z,7.23
2022-09-25T01:58:04.416Z,7.00
2022-09-25T02:00:40.061Z,7.17
2022-09-25T02:03:12.664Z,7.43
2022-09-25T02:05:46.832Z,6.90
2022-09-25T02:08:22.223Z,7.57
2022-09-25T02:10:56.292Z,8.27
2022-09-25T02:13:27.948Z,7.13
2022-09-25T02:16:01.899Z,7.53
2022-09-25T02:18:48.547Z,8.27
2022-09-25T02:21:26.637Z,6.80
2022-09-25T02:24:02.361Z,9.50
2022-09-25T02:26:32.611Z,6.90
2022-09-25T02:29:02.498Z,7.53
2022-09-25T02:31:39.324Z,8.03
2022-09-25T02:34:13.768Z,10.77
2022-09-25T02:36:45.068Z,9.07
2022-09-25T02:39:16.142Z,7.63
2022-09-25T02:42:06.223Z,8.67
2022-09-25T02:44:43.699Z,11.60
2022-09-25T02:47:25.519Z,7.87
2022-09-25T02:50:04.487Z,7.57
2022-09-25T02:52:38.566Z,7.60
2022-09-25T02:55:12.386Z,8.63
2022-09-25T02:57:46.473Z,9.17
2022-09-25T03:00:15.645Z,9.63
2022-09-25T03:02:52.111Z,8.30
2022-09-25T03:05:22.591Z,8.50
2022-09-25T03:08:08.867Z,8.23
2022-09-25T03:10:39.439Z,11.20
2022-09-25T03:13:19.336Z,11.13
2022-09-25T03:15:53.179Z,7.17
2022-09-25T03:18:23.211Z,9.50
2022-09-25T03:20:51.328Z,9.47
2022-09-25T03:23:19.570Z,6.63
2022-09-25T03:25:50.371Z,7.70
2022-09-25T03:28:19.047Z,10.53
2022-09-25T03:30:57.279Z,6.93
2022-09-25T03:33:27.890Z,7.77
2022-09-25T03:36:18.659Z,8.07
2022-09-25T03:38:49.289Z,6.50
2022-09-25T03:41:21.522Z,7.00
2022-09-25T03:43:52.085Z,8.77
2022-09-25T03:46:23.262Z,7.43
2022-09-25T03:48:53.493Z,9.10
2022-09-25T03:51:22.397Z,7.83
2022-09-25T03:53:51.430Z,8.33
2022-09-25T03:56:21.463Z,9.07
2022-09-25T03:58:49.881Z,7.60
2022-09-25T04:01:19.712Z,8.80
2022-09-25T04:03:48.365Z,8.70
2022-09-25T04:06:22.942Z,9.33
2022-09-25T04:08:51.960Z,8.63
2022-09-25T04:11:21.881Z,8.83
2022-09-25T04:13:50.368Z,7.60
2022-09-25T04:16:21.368Z,7.70
2022-09-25T04:18:50.800Z,12.13
2022-09-25T04:21:20.462Z,11.50
2022-09-25T04:24:08.915Z,9.20
2022-09-25T04:26:37.588Z,8.03
2022-09-25T04:29:06.151Z,8.17
2022-09-25T04:31:35.453Z,8.00
2022-09-25T04:34:04.463Z,7.93
2022-09-25T04:36:33.996Z,8.63
2022-09-25T04:39:02.372Z,8.33
2022-09-25T04:41:30.652Z,7.33
2022-09-25T04:43:58.625Z,8.87
2022-09-25T04:46:27.007Z,8.03
2022-09-25T04:48:55.440Z,8.77
2022-09-25T04:51:23.742Z,7.90
2022-09-25T04:53:53.556Z,7.33
2022-09-25T04:56:22.055Z,8.80
2022-09-25T04:58:51.341Z,7.83
2022-09-25T05:01:21.608Z,8.03
2022-09-25T05:03:50.476Z,6.87
2022-09-25T05:06:18.871Z,6.33
2022-09-25T05:08:49.845Z,6.80
2022-09-25T05:11:19.837Z,6.60
2022-09-25T05:13:51.610Z,7.20
2022-09-25T05:16:20.306Z,6.73
2022-09-25T05:18:48.762Z,6.50
2022-09-25T05:21:17.077Z,7.97
2022-09-25T05:23:45.299Z,7.40
2022-09-25T05:26:13.391Z,7.57
2022-09-25T05:28:43.074Z,7.10
2022-09-25T05:31:11.533Z,7.00
2022-09-25T05:33:39.758Z,5.87
2022-09-25T05:36:09.873Z,6.03
2022-09-25T05:38:40.085Z,7.93
2022-09-25T05:41:10.983Z,7.07
2022-09-25T05:43:43.287Z,6.23
2022-09-25T05:46:12.779Z,5.97
2022-09-25T05:48:41.833Z,6.70
2022-09-25T05:51:11.025Z,7.97
2022-09-25T05:53:40.195Z,6.40
2022-09-25T05:56:09.707Z,9.80
2022-09-25T05:58:38.999Z,6.57
2022-09-25T06:01:08.745Z,7.67
2022-09-25T06:03:37.019Z,6.17
2022-09-25T06:06:05.531Z,6.77
2022-09-25T06:08:34.965Z,6.43
2022-09-25T06:11:03.565Z,6.73
2022-09-25T06:13:33.278Z,8.07
2022-09-25T06:16:02.505Z,6.93
2022-09-25T06:18:32.815Z,7.47
2022-09-25T06:21:02.778Z,11.17
2022-09-25T06:23:32.062Z,8.83
2022-09-25T06:26:04.125Z,11.57
2022-09-25T06:28:33.014Z,12.07
2022-09-25T06:31:02.157Z,16.43
2022-09-25T06:33:32.924Z,7.60
2022-09-25T06:36:01.691Z,7.50
2022-09-25T06:38:30.556Z,7.87
2022-09-25T06:41:00.858Z,9.17
2022-09-25T06:43:30.277Z,9.10
2022-09-25T06:46:02.661Z,8.33
2022-09-25T06:48:33.146Z,9.03
2022-09-25T06:51:02.693Z,8.13
2022-09-25T06:53:31.569Z,8.77
2022-09-25T06:56:03.173Z,8.00
2022-09-25T06:58:31.823Z,8.13
2022-09-25T07:01:00.323Z,9.30
2022-09-25T07:03:46.644Z,7.80
2022-09-25T07:06:18.220Z,8.10
2022-09-25T07:08:48.439Z,10.73
2022-09-25T07:11:19.017Z,9.53
2022-09-25T07:13:47.537Z,8.50
2022-09-25T07:16:17.918Z,10.87
2022-09-25T07:18:46.787Z,10.00
2022-09-25T07:21:18.832Z,9.97
2022-09-25T07:23:50.349Z,13.40
2022-09-25T07:26:22.827Z,9.90
2022-09-25T07:28:56.264Z,9.43
2022-09-25T07:31:26.972Z,9.63
2022-09-25T07:33:55.825Z,9.83
2022-09-25T07:36:25.721Z,10.70
2022-09-25T07:38:54.630Z,9.97
2022-09-25T07:41:23.801Z,14.27
2022-09-25T07:44:02.044Z,11.70
2022-09-25T07:46:43.641Z,11.40
2022-09-25T07:49:11.812Z,14.63
2022-09-25T07:51:41.912Z,12.70
2022-09-25T07:54:10.435Z,14.33
2022-09-25T07:56:40.729Z,11.23
2022-09-25T07:59:08.976Z,12.07
2022-09-25T08:01:43.278Z,12.10
2022-09-25T08:04:12.681Z,13.53
2022-09-25T08:06:42.575Z,12.17
2022-09-25T08:09:12.031Z,12.57
2022-09-25T08:11:40.859Z,11.63
2022-09-25T08:14:09.650Z,11.23
2022-09-25T08:16:39.049Z,11.37
2022-09-25T08:19:07.212Z,11.30
2022-09-25T08:21:36.185Z,11.60
2022-09-25T08:24:05.986Z,11.43
2022-09-25T08:26:34.397Z,13.70
2022-09-25T08:29:02.893Z,12.17
2022-09-25T08:31:31.256Z,12.33
2022-09-25T08:34:09.934Z,11.07
2022-09-25T08:36:50.504Z,10.50
2022-09-25T08:39:20.161Z,10.57
2022-09-25T08:41:50.817Z,10.90
2022-09-25T08:44:26.221Z,11.87
2022-09-25T08:47:19.544Z,9.63
2022-09-25T08:49:57.345Z,9.70
2022-09-25T08:52:25.620Z,12.70
2022-09-25T08:54:55.893Z,11.43
2022-09-25T08:57:31.069Z,9.53
2022-09-25T09:00:03.398Z,10.17
2022-09-25T09:02:40.177Z,9.23
2022-09-25T09:05:18.526Z,10.40
2022-09-25T09:07:51.214Z,11.47
2022-09-25T09:10:29.984Z,10.07
2022-09-25T09:13:02.533Z,11.27
2022-09-25T09:15:37.913Z,12.70
2022-09-25T09:18:18.543Z,12.17
2022-09-25T09:20:52.805Z,13.53
2022-09-25T09:23:22.603Z,11.73
2022-09-25T09:26:01.226Z,11.97
2022-09-25T09:29:02.217Z,12.67
2022-09-25T09:31:38.851Z,15.67
2022-09-25T09:34:53.529Z,12.90
2022-09-25T09:37:31.826Z,13.30
2022-09-25T09:40:13.775Z,13.13
2022-09-25T09:42:51.570Z,14.00
2022-09-25T09:45:28.619Z,13.67
2022-09-25T09:48:02.954Z,15.87
2022-09-25T09:50:47.207Z,13.53
2022-09-25T09:53:29.275Z,13.23
2022-09-25T09:56:02.230Z,12.60
2022-09-25T09:58:49.041Z,12.63
2022-09-25T10:04:13.656Z,10.43
2022-09-25T10:06:48.182Z,10.10
2022-09-25T10:09:18.190Z,9.37
2022-09-25T10:11:48.669Z,11.30
2022-09-25T10:14:22.056Z,9.37
2022-09-25T10:16:51.834Z,9.83
2022-09-25T10:19:22.919Z,10.03
2022-09-25T10:21:56.251Z,10.77
2022-09-25T10:24:55.245Z,11.93
2022-09-25T10:27:36.010Z,8.83
2022-09-25T10:30:18.904Z,8.00
2022-09-25T10:32:57.828Z,6.57
2022-09-25T10:35:29.745Z,9.50
2022-09-25T10:38:02.466Z,8.57
2022-09-25T10:40:34.285Z,8.03
2022-09-25T10:43:15.799Z,8.43
2022-09-25T10:45:46.315Z,6.63
2022-09-25T10:48:46.584Z,6.80
2022-09-25T10:51:17.506Z,6.37
2022-09-25T10:53:46.982Z,4.33
2022-09-25T10:56:20.714Z,5.33
2022-09-25T10:58:55.185Z,3.90
2022-09-25T11:01:35.567Z,3.80
2022-09-25T11:04:09.608Z,4.17
2022-09-25T11:06:44.204Z,5.80
2022-09-25T11:09:15.849Z,5.97
2022-09-25T11:11:49.601Z,4.00
2022-09-25T11:14:23.173Z,7.87
2022-09-25T11:16:56.219Z,5.37
2022-09-25T11:19:29.195Z,4.27
2022-09-25T11:22:12.741Z,7.63
2022-09-25T11:25:00.230Z,6.27
2022-09-25T11:27:36.188Z,6.13
2022-09-25T11:30:08.038Z,6.83
2022-09-25T11:32:51.678Z,5.47
2022-09-25T11:35:34.909Z,6.00
2022-09-25T11:38:12.564Z,6.23
2022-09-25T11:41:07.423Z,7.03
2022-09-25T11:43:47.560Z,5.33
2022-09-25T11:46:24.401Z,6.63
2022-09-25T11:49:08.535Z,5.40
2022-09-25T11:52:16.604Z,4.60
2022-09-25T11:54:59.099Z,4.47
2022-09-25T11:57:35.464Z,5.27
2022-09-25T12:00:13.189Z,5.10
2022-09-25T12:03:03.972Z,5.07
2022-09-25T12:05:55.732Z,6.07
2022-09-25T12:08:40.553Z,7.73
2022-09-25T12:11:20.681Z,7.50
2022-09-25T12:13:55.942Z,3.70
2022-09-25T12:16:29.218Z,4.43
2022-09-25T12:19:09.617Z,6.73
2022-09-25T12:21:48.563Z,4.93
2022-09-25T12:24:32.028Z,5.20
2022-09-25T12:27:07.547Z,5.93
2022-09-25T12:29:48.111Z,3.93
2022-09-25T12:32:37.071Z,6.20
2022-09-25T12:35:26.964Z,8.17
2022-09-25T12:38:03.029Z,7.60
2022-09-25T12:40:37.714Z,8.63
2022-09-25T12:43:11.560Z,8.13
2022-09-25T12:45:45.302Z,7.17
2022-09-25T12:48:18.822Z,5.57
2022-09-25T12:50:55.625Z,5.70
2022-09-25T12:53:30.085Z,3.00
2022-09-25T12:56:05.225Z,4.77
2022-09-25T12:58:49.340Z,5.07
2022-09-25T13:01:23.824Z,6.87
2022-09-25T13:04:03.297Z,5.20
2022-09-25T13:06:41.978Z,2.37
2022-09-25T13:09:20.545Z,5.43
2022-09-25T13:11:53.394Z,6.40
2022-09-25T13:14:32.243Z,3.97
2022-09-25T13:17:01.318Z,5.30
2022-09-25T13:19:33.416Z,4.30
2022-09-25T13:22:05.119Z,5.30
2022-09-25T13:24:40.773Z,4.33
2022-09-25T13:27:16.963Z,5.53
2022-09-25T13:29:45.897Z,8.67
2022-09-25T13:32:19.202Z,3.97
2022-09-25T13:34:48.184Z,4.03
2022-09-25T13:37:17.666Z,7.33
2022-09-25T13:40:10.140Z,5.17
2022-09-25T13:42:40.442Z,6.07
2022-09-25T13:45:33.842Z,5.23
2022-09-25T13:48:12.320Z,5.50
2022-09-25T13:50:43.245Z,7.53
2022-09-25T13:53:28.592Z,7.00
2022-09-25T13:56:30.482Z,6.10
2022-09-25T13:59:26.576Z,6.80
2022-09-25T14:01:57.929Z,7.27
2022-09-25T14:04:33.584Z,4.93
2022-09-25T14:07:29.908Z,5.33
2022-09-25T14:10:00.339Z,3.97
2022-09-25T14:12:42.615Z,4.13
2022-09-25T14:15:21.489Z,6.67
2022-09-25T14:17:53.306Z,2.43
2022-09-25T14:20:37.476Z,4.47
2022-09-25T14:23:13.080Z,3.30
2022-09-25T14:25:47.117Z,3.27
2022-09-25T14:28:25.647Z,4.20
2022-09-25T14:31:14.414Z,3.57
2022-09-25T14:34:02.978Z,3.50
2022-09-25T14:36:39.698Z,3.47
2022-09-25T14:39:38.822Z,2.67
2022-09-25T14:42:30.680Z,5.63
2022-09-25T14:45:18.973Z,4.00
2022-09-25T14:47:50.630Z,1.90
2022-09-25T14:50:23.667Z,2.57
2022-09-25T14:52:56.862Z,3.93
2022-09-25T14:55:27.985Z,3.97
2022-09-25T14:57:58.830Z,5.30
2022-09-25T15:00:30.185Z,5.67
2022-09-25T15:02:59.880Z,2.63
2022-09-25T15:05:33.070Z,3.97
2022-09-25T15:08:03.390Z,3.80
2022-09-25T15:10:34.700Z,4.20
2022-09-25T15:13:15.992Z,4.07
2022-09-25T15:16:01.728Z,1.93
2022-09-25T15:18:30.891Z,4.57
2022-09-25T15:20:59.953Z,2.77
2022-09-25T15:23:34.256Z,5.17
2022-09-25T15:26:03.360Z,3.43
2022-09-25T15:28:41.339Z,3.53
2022-09-25T15:31:11.894Z,2.83
2022-09-25T15:33:41.580Z,2.83
2022-09-25T15:36:20.403Z,4.80
2022-09-25T15:38:54.569Z,3.47
2022-09-25T15:41:24.839Z,4.40
2022-09-25T15:43:53.649Z,5.43
2022-09-25T15:48:33.226Z,4.47
2022-09-25T15:51:07.199Z,4.33
2022-09-25T15:53:44.431Z,4.50
2022-09-25T15:56:19.856Z,3.10
2022-09-25T15:58:51.686Z,4.20
2022-09-25T16:01:40.780Z,6.47
2022-09-25T16:04:38.500Z,3.90
2022-09-25T16:07:24.283Z,2.33
2022-09-25T16:09:54.734Z,3.93
2022-09-25T16:12:29.073Z,3.23
2022-09-25T16:14:59.931Z,3.20
2022-09-25T16:17:34.147Z,3.80
2022-09-25T16:20:07.763Z,1.83
2022-09-25T16:22:42.105Z,3.07
2022-09-25T16:25:22.308Z,1.50
2022-09-25T16:27:50.778Z,5.03
2022-09-25T16:30:22.392Z,2.07
2022-09-25T16:32:52.688Z,3.67
2022-09-25T16:35:57.557Z,2.60
2022-09-25T16:38:32.167Z,2.93
2022-09-25T16:41:05.705Z,3.03
2022-09-25T16:43:36.583Z,2.60
2022-09-25T16:46:15.212Z,3.00
2022-09-25T16:48:43.998Z,3.83
2022-09-25T16:51:21.924Z,4.37
2022-09-25T16:53:50.547Z,2.30
2022-09-25T16:56:22.232Z,4.27
2022-09-25T16:58:51.033Z,4.43
2022-09-25T17:01:19.885Z,2.83
2022-09-25T17:03:52.606Z,6.43
2022-09-25T17:06:23.864Z,2.40
2022-09-25T17:08:52.310Z,4.73
2022-09-25T17:11:22.615Z,2.83
2022-09-25T17:13:52.692Z,2.73
2022-09-25T17:16:21.116Z,2.33
2022-09-25T17:18:49.535Z,4.60
2022-09-25T17:21:20.245Z,3.07
2022-09-25T17:23:50.080Z,4.90
2022-09-25T17:26:21.549Z,3.87
2022-09-25T17:28:50.860Z,3.10
2022-09-25T17:31:21.328Z,4.30
2022-09-25T17:33:51.193Z,2.73
2022-09-25T17:36:19.779Z,3.83
2022-09-25T17:38:49.435Z,4.57
2022-09-25T17:41:21.877Z,2.90
2022-09-25T17:43:50.448Z,6.13
2022-09-25T17:46:19.230Z,4.33
2022-09-25T17:48:53.109Z,3.67
2022-09-25T17:51:24.659Z,4.43
2022-09-25T17:53:56.112Z,4.07
2022-09-25T17:56:24.699Z,2.70
2022-09-25T17:58:55.100Z,3.20
2022-09-25T18:01:25.104Z,5.37
2022-09-25T18:03:55.027Z,4.63
2022-09-25T18:06:23.338Z,4.80
2022-09-25T18:08:54.826Z,4.30
2022-09-25T18:11:24.469Z,5.43
2022-09-25T18:13:54.418Z,5.40
2022-09-25T18:16:27.191Z,5.20
2022-09-25T18:19:13.475Z,6.03
2022-09-25T18:21:59.632Z,4.13
2022-09-25T18:24:29.693Z,6.50
2022-09-25T18:26:58.633Z,3.50
2022-09-25T18:29:27.522Z,6.63
2022-09-25T18:31:56.013Z,4.80
2022-09-25T18:34:26.270Z,4.60
2022-09-25T18:36:55.534Z,3.90
2022-09-25T18:39:24.327Z,5.93
2022-09-25T18:41:54.220Z,4.70
2022-09-25T18:44:23.890Z,3.53
2022-09-25T18:46:53.233Z,4.40
2022-09-25T18:49:22.702Z,6.50
2022-09-25T18:51:53.436Z,4.40
2022-09-25T18:54:22.119Z,3.40
2022-09-25T18:56:50.406Z,3.87
2022-09-25T18:59:20.376Z,2.17
2022-09-25T19:01:49.037Z,3.00
2022-09-25T19:04:17.845Z,5.03
2022-09-25T19:06:46.320Z,5.10
2022-09-25T19:09:16.902Z,4.70
2022-09-25T19:11:46.135Z,4.87
2022-09-25T19:14:16.830Z,3.30
2022-09-25T19:16:47.699Z,4.00
2022-09-25T19:19:15.991Z,7.97
2022-09-25T19:21:45.159Z,4.60
2022-09-25T19:24:14.641Z,2.23
2022-09-25T19:26:44.370Z,2.33
2022-09-25T19:29:14.474Z,2.93
2022-09-25T19:31:43.208Z,4.23
2022-09-25T19:34:13.450Z,3.30
2022-09-25T19:36:42.080Z,4.10
2022-09-25T19:39:11.287Z,3.40
2022-09-25T19:41:41.186Z,3.77
2022-09-25T19:44:14.328Z,5.00
2022-09-25T19:46:43.735Z,4.57
2022-09-25T19:49:14.752Z,4.77
2022-09-25T19:51:44.412Z,6.30
2022-09-25T19:54:15.808Z,6.57
2022-09-25T19:56:46.661Z,4.03
2022-09-25T19:59:17.411Z,4.57
2022-09-25T20:01:46.574Z,3.97
2022-09-25T20:04:18.943Z,3.37
2022-09-25T20:06:48.882Z,2.27
2022-09-25T20:09:17.282Z,3.83
2022-09-25T20:11:46.143Z,3.27
2022-09-25T20:14:14.766Z,2.60
2022-09-25T20:16:42.964Z,3.00
2022-09-25T20:19:13.855Z,4.20
2022-09-25T20:21:43.524Z,2.97
2022-09-25T20:24:11.732Z,6.07
2022-09-25T20:26:40.789Z,4.37
2022-09-25T20:29:12.448Z,3.83
2022-09-25T20:31:42.600Z,2.73
2022-09-25T20:34:14.045Z,2.83
2022-09-25T20:36:44.141Z,3.67
2022-09-25T20:39:16.868Z,1.97
2022-09-25T20:41:48.291Z,3.80
2022-09-25T20:44:16.634Z,2.83
2022-09-25T20:46:44.815Z,4.00
2022-09-25T20:49:13.447Z,6.13
2022-09-25T20:51:42.284Z,3.10
2022-09-25T20:54:12.067Z,3.73
2022-09-25T20:56:43.992Z,2.97
2022-09-25T20:59:16.228Z,4.60
2022-09-25T21:01:44.968Z,3.00
2022-09-25T21:04:13.370Z,5.10
2022-09-25T21:06:42.952Z,2.80
2022-09-25T21:09:19.645Z,5.57
2022-09-25T21:11:48.412Z,4.50
2022-09-25T21:14:23.983Z,3.83
2022-09-25T21:16:52.963Z,4.23
2022-09-25T21:19:23.381Z,6.27
2022-09-25T21:21:51.787Z,3.97
2022-09-25T21:24:22.950Z,3.53
2022-09-25T21:26:52.005Z,4.57
2022-09-25T21:29:21.527Z,5.43
2022-09-25T21:31:50.853Z,2.93
2022-09-25T21:34:19.883Z,4.07
2022-09-25T21:36:49.170Z,6.00
2022-09-25T21:39:17.771Z,4.87
2022-09-25T21:41:49.145Z,5.80
2022-09-25T21:44:20.374Z,4.80
2022-09-25T21:46:48.647Z,5.03
2022-09-25T21:49:18.646Z,4.53
2022-09-25T21:51:47.610Z,4.00
2022-09-25T21:54:17.784Z,3.50
2022-09-25T21:56:46.251Z,5.67
2022-09-25T21:59:16.617Z,3.90
2022-09-25T22:01:45.031Z,3.33
2022-09-25T22:04:14.883Z,3.10
2022-09-25T22:06:44.607Z,2.00
2022-09-25T22:09:14.597Z,1.50
2022-09-25T22:11:43.679Z,1.60
2022-09-25T22:14:16.096Z,3.27
2022-09-25T22:16:48.137Z,2.63
2022-09-25T22:19:19.348Z,1.00
2022-09-25T22:21:49.186Z,0.83
2022-09-25T22:24:17.872Z,1.97
2022-09-25T22:26:48.060Z,2.17
2022-09-25T22:29:17.413Z,1.13
2022-09-25T22:31:47.416Z,0.70
2022-09-25T22:34:19.806Z,1.77
2022-09-25T22:36:48.334Z,1.83
2022-09-25T22:39:18.556Z,1.63
2022-09-25T22:41:50.964Z,2.43
2022-09-25T22:44:20.117Z,2.27
2022-09-25T22:46:49.951Z,0.70
2022-09-25T22:49:18.991Z,1.77
2022-09-25T22:51:47.293Z,3.13
2022-09-25T22:54:15.996Z,1.43
2022-09-25T22:56:45.112Z,2.77
2022-09-25T22:59:16.304Z,1.27
2022-09-25T23:01:47.565Z,0.80
2022-09-25T23:04:19.644Z,2.60
2022-09-25T23:06:48.406Z,2.43
2022-09-25T23:09:18.887Z,1.70
2022-09-25T23:11:47.376Z,1.57
2022-09-25T23:14:17.712Z,2.63
2022-09-25T23:16:47.096Z,3.67
2022-09-25T23:19:17.435Z,3.17
2022-09-25T23:21:46.084Z,3.13
2022-09-25T23:24:17.755Z,2.53
2022-09-25T23:26:46.934Z,1.87
2022-09-25T23:29:16.683Z,2.60
2022-09-25T23:31:45.671Z,2.47
2022-09-25T23:34:14.049Z,2.17
2022-09-25T23:36:43.691Z,1.83
2022-09-25T23:39:16.983Z,2.87
2022-09-25T23:41:45.512Z,2.93
2022-09-25T23:44:13.682Z,1.57
2022-09-25T23:46:43.408Z,2.73
2022-09-25T23:49:14.929Z,0.90
2022-09-25T23:51:46.610Z,4.03
2022-09-25T23:54:15.094Z,5.30
2022-09-25T23:56:43.762Z,3.73
2022-09-25T23:59:13.854Z,4.63
